createdAt,value
2023-05-06T00:00:26.572Z,11.97
2023-05-06T00:01:26.533Z,12.05
2023-05-06T00:02:26.599Z,12.05
2023-05-06T00:03:26.700Z,12.05
2023-05-06T00:04:26.527Z,12.18
2023-05-06T00:05:26.517Z,12.08
2023-05-06T00:06:26.514Z,12.31
2023-05-06T00:07:26.491Z,12.36
2023-05-06T00:08:26.467Z,12.37
2023-05-06T00:09:26.460Z,12.40
2023-05-06T00:10:26.489Z,12.43
2023-05-06T00:11:26.489Z,12.51
2023-05-06T00:12:26.443Z,12.52
2023-05-06T00:13:27.428Z,12.38
2023-05-06T00:14:26.517Z,12.44
2023-05-06T00:15:26.428Z,12.16
2023-05-06T00:16:26.475Z,12.00
2023-05-06T00:17:26.486Z,11.79
2023-05-06T00:18:26.422Z,11.72
2023-05-06T00:19:26.403Z,11.88
2023-05-06T00:20:26.409Z,12.11
2023-05-06T00:21:26.418Z,12.04
2023-05-06T00:22:26.363Z,12.05
2023-05-06T00:23:26.369Z,12.00
2023-05-06T00:24:26.403Z,12.00
2023-05-06T00:25:26.538Z,11.94
2023-05-06T00:26:26.387Z,11.98
2023-05-06T00:27:26.404Z,12.08
2023-05-06T00:28:26.352Z,12.11
2023-05-06T00:29:26.323Z,11.97
2023-05-06T00:30:26.308Z,11.88
2023-05-06T00:31:26.338Z,11.85
2023-05-06T00:32:26.410Z,11.74
2023-05-06T00:33:26.279Z,11.59
2023-05-06T00:34:26.287Z,11.63
2023-05-06T00:35:26.282Z,11.66
2023-05-06T00:36:26.327Z,11.74
2023-05-06T00:37:26.267Z,11.74
2023-05-06T00:38:26.277Z,11.74
2023-05-06T00:39:26.275Z,11.77
2023-05-06T00:40:26.246Z,11.88
2023-05-06T00:41:26.235Z,12.05
2023-05-06T00:42:26.237Z,12.12
2023-05-06T00:43:26.237Z,12.26
2023-05-06T00:44:26.230Z,12.37
2023-05-06T00:45:26.198Z,12.33
2023-05-06T00:46:26.287Z,12.40
2023-05-06T00:47:26.219Z,12.46
2023-05-06T00:48:26.224Z,12.59
2023-05-06T00:49:26.211Z,12.61
2023-05-06T00:50:26.167Z,12.62
2023-05-06T00:51:26.173Z,12.66
2023-05-06T00:52:26.159Z,12.79
2023-05-06T00:53:26.189Z,12.70
2023-05-06T00:54:26.153Z,12.79
2023-05-06T00:55:26.124Z,12.84
2023-05-06T00:56:26.139Z,12.71
2023-05-06T00:57:26.141Z,12.55
2023-05-06T00:58:26.141Z,12.18
2023-05-06T00:59:26.110Z,11.81
2023-05-06T01:00:26.112Z,11.81
2023-05-06T01:01:26.164Z,11.56
2023-05-06T01:02:30.715Z,11.42
2023-05-06T01:03:28.225Z,11.48
2023-05-06T01:04:26.077Z,11.62
2023-05-06T01:05:26.129Z,11.60
2023-05-06T01:06:26.056Z,11.53
2023-05-06T01:07:26.048Z,11.56
2023-05-06T01:08:26.058Z,11.48
2023-05-06T01:09:26.080Z,11.53
2023-05-06T01:10:26.023Z,11.46
2023-05-06T01:11:26.074Z,11.35
2023-05-06T01:12:26.014Z,11.33
2023-05-06T01:13:26.001Z,11.26
2023-05-06T01:14:25.978Z,11.26
2023-05-06T01:15:25.992Z,11.31
2023-05-06T01:16:26.050Z,11.35
2023-05-06T01:17:26.013Z,11.45
2023-05-06T01:18:26.017Z,11.51
2023-05-06T01:19:25.962Z,11.64
2023-05-06T01:20:25.977Z,11.74
2023-05-06T01:21:25.959Z,11.87
2023-05-06T01:22:25.946Z,12.03
2023-05-06T01:23:25.946Z,12.04
2023-05-06T01:24:25.938Z,12.13
2023-05-06T01:25:25.932Z,12.16
2023-05-06T01:26:25.948Z,12.19
2023-05-06T01:27:25.921Z,12.34
2023-05-06T01:28:25.936Z,12.31
2023-05-06T01:29:25.911Z,12.40
2023-05-06T01:30:25.906Z,12.43
2023-05-06T01:31:25.968Z,12.44
2023-05-06T01:32:25.941Z,12.49
2023-05-06T01:33:25.872Z,12.63
2023-05-06T01:34:25.870Z,12.54
2023-05-06T01:35:25.873Z,12.52
2023-05-06T01:36:25.887Z,12.48
2023-05-06T01:37:25.901Z,12.43
2023-05-06T01:38:25.851Z,12.43
2023-05-06T01:39:25.865Z,12.40
2023-05-06T01:40:25.862Z,12.44
2023-05-06T01:41:25.858Z,12.41
2023-05-06T01:42:25.812Z,12.49
2023-05-06T01:43:25.801Z,12.46
2023-05-06T01:44:25.835Z,12.46
2023-05-06T01:45:25.804Z,12.43
2023-05-06T01:46:25.864Z,12.51
2023-05-06T01:47:25.918Z,12.51
2023-05-06T01:48:25.767Z,12.54
2023-05-06T01:49:25.777Z,12.52
2023-05-06T01:50:25.808Z,12.36
2023-05-06T01:51:25.746Z,11.96
2023-05-06T01:52:25.767Z,11.70
2023-05-06T01:53:25.766Z,11.56
2023-05-06T01:54:25.732Z,11.60
2023-05-06T01:55:25.731Z,11.64
2023-05-06T01:56:25.726Z,11.64
2023-05-06T01:57:25.728Z,11.56
2023-05-06T01:58:25.700Z,11.64
2023-05-06T01:59:25.733Z,11.72
2023-05-06T02:00:25.684Z,11.85
2023-05-06T02:01:25.831Z,11.84
2023-05-06T02:02:25.783Z,11.85
2023-05-06T02:03:25.739Z,11.84
2023-05-06T02:04:25.675Z,11.98
2023-05-06T02:05:25.636Z,11.96
2023-05-06T02:06:25.777Z,12.08
2023-05-06T02:07:25.619Z,11.85
2023-05-06T02:08:25.644Z,11.63
2023-05-06T02:09:25.620Z,11.74
2023-05-06T02:10:25.607Z,11.84
2023-05-06T02:11:25.601Z,11.67
2023-05-06T02:12:25.616Z,11.82
2023-05-06T02:13:25.609Z,11.90
2023-05-06T02:14:25.567Z,11.88
2023-05-06T02:15:25.566Z,11.96
2023-05-06T02:16:25.636Z,12.08
2023-05-06T02:17:25.577Z,12.05
2023-05-06T02:18:25.591Z,12.13
2023-05-06T02:19:25.587Z,11.97
2023-05-06T02:20:25.563Z,11.79
2023-05-06T02:21:25.533Z,11.63
2023-05-06T02:22:25.637Z,11.48
2023-05-06T02:23:25.584Z,11.49
2023-05-06T02:24:25.506Z,11.31
2023-05-06T02:25:25.535Z,11.41
2023-05-06T02:26:25.525Z,11.45
2023-05-06T02:27:25.524Z,11.44
2023-05-06T02:28:25.483Z,11.45
2023-05-06T02:29:25.499Z,11.57
2023-05-06T02:30:25.511Z,11.66
2023-05-06T02:31:25.547Z,11.67
2023-05-06T02:32:25.498Z,11.70
2023-05-06T02:33:25.451Z,11.84
2023-05-06T02:34:25.504Z,11.75
2023-05-06T02:35:25.478Z,11.82
2023-05-06T02:36:25.423Z,12.03
2023-05-06T02:37:25.420Z,12.03
2023-05-06T02:38:25.416Z,11.98
2023-05-06T02:39:25.470Z,12.08
2023-05-06T02:40:25.408Z,12.16
2023-05-06T02:41:25.415Z,12.08
2023-05-06T02:42:25.462Z,12.16
2023-05-06T02:43:25.398Z,12.05
2023-05-06T02:44:25.378Z,12.19
2023-05-06T02:45:25.388Z,12.07
2023-05-06T02:46:25.456Z,12.15
2023-05-06T02:47:25.403Z,12.19
2023-05-06T02:48:25.349Z,12.15
2023-05-06T02:49:25.369Z,12.22
2023-05-06T02:50:25.369Z,12.13
2023-05-06T02:51:25.334Z,12.15
2023-05-06T02:52:25.339Z,12.13
2023-05-06T02:53:25.330Z,12.15
2023-05-06T02:54:25.357Z,12.19
2023-05-06T02:55:25.304Z,12.13
2023-05-06T02:56:25.305Z,11.81
2023-05-06T02:57:25.317Z,11.64
2023-05-06T02:58:25.284Z,11.56
2023-05-06T02:59:25.270Z,11.63
2023-05-06T03:00:25.283Z,11.49
2023-05-06T03:01:25.285Z,11.54
2023-05-06T03:02:25.298Z,11.51
2023-05-06T03:03:25.233Z,11.31
2023-05-06T03:04:25.282Z,11.24
2023-05-06T03:05:25.227Z,11.19
2023-05-06T03:06:25.248Z,11.19
2023-05-06T03:07:25.250Z,11.05
2023-05-06T03:08:25.223Z,11.20
2023-05-06T03:09:25.228Z,11.24
2023-05-06T03:10:25.289Z,11.33
2023-05-06T03:11:25.196Z,11.33
2023-05-06T03:12:25.221Z,11.42
2023-05-06T03:13:25.206Z,11.42
2023-05-06T03:14:25.170Z,11.28
2023-05-06T03:15:25.210Z,11.31
2023-05-06T03:16:25.201Z,11.24
2023-05-06T03:17:25.175Z,11.26
2023-05-06T03:18:25.192Z,11.17
2023-05-06T03:19:25.149Z,11.26
2023-05-06T03:20:25.187Z,11.24
2023-05-06T03:21:25.150Z,11.27
2023-05-06T03:22:25.139Z,11.26
2023-05-06T03:23:25.121Z,11.36
2023-05-06T03:24:25.121Z,11.21
2023-05-06T03:25:25.140Z,11.03
2023-05-06T03:26:25.319Z,10.80
2023-05-06T03:27:25.093Z,10.72
2023-05-06T03:28:25.107Z,10.46
2023-05-06T03:29:25.094Z,10.36
2023-05-06T03:30:25.090Z,10.34
2023-05-06T03:31:25.090Z,10.28
2023-05-06T03:32:25.093Z,10.28
2023-05-06T03:33:25.056Z,10.39
2023-05-06T03:34:25.086Z,10.46
2023-05-06T03:35:25.060Z,10.55
2023-05-06T03:36:25.036Z,10.44
2023-05-06T03:37:25.029Z,10.35
2023-05-06T03:38:25.021Z,10.31
2023-05-06T03:39:25.035Z,10.28
2023-05-06T03:40:25.013Z,10.46
2023-05-06T03:41:25.018Z,10.43
2023-05-06T03:42:25.036Z,10.49
2023-05-06T03:43:25.020Z,10.42
2023-05-06T03:44:24.977Z,10.43
2023-05-06T03:45:25.027Z,10.54
2023-05-06T03:46:25.029Z,10.52
2023-05-06T03:47:25.066Z,10.65
2023-05-06T03:48:25.001Z,10.70
2023-05-06T03:49:24.953Z,10.58
2023-05-06T03:50:24.934Z,10.28
2023-05-06T03:51:24.941Z,10.17
2023-05-06T03:52:24.924Z,10.13
2023-05-06T03:53:24.976Z,10.16
2023-05-06T03:54:24.933Z,10.20
2023-05-06T03:55:25.027Z,10.02
2023-05-06T03:56:25.032Z,10.10
2023-05-06T03:57:24.978Z,10.09
2023-05-06T03:58:24.905Z,10.02
2023-05-06T03:59:24.901Z,9.93
2023-05-06T04:00:24.883Z,9.93
2023-05-06T04:01:24.867Z,10.07
2023-05-06T04:02:25.031Z,9.96
2023-05-06T04:03:24.913Z,10.11
2023-05-06T04:04:24.851Z,10.13
2023-05-06T04:05:24.837Z,10.31
2023-05-06T04:06:24.869Z,10.29
2023-05-06T04:07:24.864Z,10.04
2023-05-06T04:08:24.853Z,10.07
2023-05-06T04:09:24.860Z,10.17
2023-05-06T04:10:24.848Z,10.26
2023-05-06T04:11:24.823Z,10.38
2023-05-06T04:12:24.807Z,10.60
2023-05-06T04:13:24.828Z,10.51
2023-05-06T04:14:24.878Z,10.63
2023-05-06T04:15:24.821Z,10.42
2023-05-06T04:16:24.918Z,10.42
2023-05-06T04:17:24.879Z,10.26
2023-05-06T04:18:24.842Z,10.35
2023-05-06T04:19:24.755Z,10.43
2023-05-06T04:20:24.752Z,10.57
2023-05-06T04:21:24.750Z,10.47
2023-05-06T04:22:24.762Z,10.58
2023-05-06T04:23:24.765Z,10.72
2023-05-06T04:24:24.753Z,10.69
2023-05-06T04:25:24.816Z,10.83
2023-05-06T04:26:24.719Z,10.72
2023-05-06T04:27:24.746Z,10.42
2023-05-06T04:28:24.711Z,10.25
2023-05-06T04:29:24.692Z,10.14
2023-05-06T04:30:24.736Z,10.18
2023-05-06T04:31:24.728Z,10.26
2023-05-06T04:32:24.700Z,10.35
2023-05-06T04:33:24.665Z,10.57
2023-05-06T04:34:24.668Z,10.58
2023-05-06T04:35:24.727Z,10.76
2023-05-06T04:36:24.662Z,10.84
2023-05-06T04:37:24.647Z,10.81
2023-05-06T04:38:24.661Z,10.90
2023-05-06T04:39:24.656Z,11.02
2023-05-06T04:40:24.666Z,11.17
2023-05-06T04:41:24.628Z,11.23
2023-05-06T04:42:24.629Z,11.24
2023-05-06T04:43:24.608Z,11.31
2023-05-06T04:44:24.694Z,11.38
2023-05-06T04:45:24.772Z,11.41
2023-05-06T04:46:24.638Z,11.44
2023-05-06T04:47:24.668Z,11.41
2023-05-06T04:48:24.587Z,11.51
2023-05-06T04:49:24.593Z,11.51
2023-05-06T04:50:24.587Z,11.49
2023-05-06T04:51:24.604Z,11.46
2023-05-06T04:52:24.543Z,11.28
2023-05-06T04:53:24.599Z,11.19
2023-05-06T04:54:24.576Z,11.16
2023-05-06T04:55:24.602Z,11.16
2023-05-06T04:56:24.558Z,11.20
2023-05-06T04:57:24.551Z,11.17
2023-05-06T04:58:24.532Z,11.16
2023-05-06T04:59:24.503Z,11.31
2023-05-06T05:00:24.528Z,11.33
2023-05-06T05:01:24.533Z,11.33
2023-05-06T05:02:24.670Z,11.30
2023-05-06T05:03:24.542Z,11.21
2023-05-06T05:04:24.501Z,11.21
2023-05-06T05:05:24.466Z,11.30
2023-05-06T05:06:24.459Z,11.42
2023-05-06T05:07:24.496Z,11.48
2023-05-06T05:08:24.491Z,11.54
2023-05-06T05:09:24.449Z,11.59
2023-05-06T05:10:24.462Z,11.60
2023-05-06T05:11:24.424Z,11.59
2023-05-06T05:12:24.456Z,11.66
2023-05-06T05:13:24.419Z,11.67
2023-05-06T05:14:24.451Z,11.63
2023-05-06T05:15:24.416Z,11.67
2023-05-06T05:16:24.514Z,11.79
2023-05-06T05:17:25.529Z,11.82
2023-05-06T05:18:24.480Z,11.79
2023-05-06T05:19:24.390Z,11.77
2023-05-06T05:20:24.422Z,11.78
2023-05-06T05:21:24.401Z,11.79
2023-05-06T05:22:24.396Z,11.63
2023-05-06T05:23:24.411Z,11.67
2023-05-06T05:24:24.355Z,11.69
2023-05-06T05:25:24.341Z,11.66
2023-05-06T05:26:24.348Z,11.64
2023-05-06T05:27:24.339Z,11.49
2023-05-06T05:28:24.383Z,11.54
2023-05-06T05:29:24.373Z,11.49
2023-05-06T05:30:24.341Z,11.49
2023-05-06T05:31:25.450Z,11.45
2023-05-06T05:32:24.354Z,11.49
2023-05-06T05:33:24.333Z,11.45
2023-05-06T05:34:24.363Z,11.54
2023-05-06T05:35:24.311Z,11.74
2023-05-06T05:36:24.289Z,11.64
2023-05-06T05:37:24.367Z,11.82
2023-05-06T05:38:24.277Z,11.79
2023-05-06T05:39:24.345Z,11.78
2023-05-06T05:40:24.266Z,11.70
2023-05-06T05:41:24.308Z,11.82
2023-05-06T05:42:24.246Z,11.87
2023-05-06T05:43:24.226Z,11.63
2023-05-06T05:44:24.302Z,11.72
2023-05-06T05:45:24.261Z,11.70
2023-05-06T05:46:24.301Z,11.62
2023-05-06T05:47:24.236Z,11.60
2023-05-06T05:48:24.245Z,11.57
2023-05-06T05:49:24.175Z,11.64
2023-05-06T05:50:24.287Z,11.79
2023-05-06T05:51:24.184Z,11.77
2023-05-06T05:52:24.226Z,11.64
2023-05-06T05:53:24.149Z,11.57
2023-05-06T05:54:24.155Z,11.75
2023-05-06T05:55:24.168Z,11.77
2023-05-06T05:56:24.168Z,11.97
2023-05-06T05:57:24.220Z,12.04
2023-05-06T05:58:24.161Z,11.88
2023-05-06T05:59:24.124Z,11.88
2023-05-06T06:00:24.166Z,11.78
2023-05-06T06:01:24.130Z,11.63
2023-05-06T06:02:24.264Z,11.84
2023-05-06T06:03:24.241Z,11.79
2023-05-06T06:04:24.155Z,12.00
2023-05-06T06:05:24.097Z,12.05
2023-05-06T06:06:24.203Z,11.96
2023-05-06T06:07:24.066Z,11.77
2023-05-06T06:08:24.103Z,11.79
2023-05-06T06:09:24.067Z,11.63
2023-05-06T06:10:24.045Z,11.66
2023-05-06T06:11:24.036Z,11.63
2023-05-06T06:12:24.036Z,11.54
2023-05-06T06:13:25.222Z,11.54
2023-05-06T06:14:24.020Z,11.59
2023-05-06T06:15:24.119Z,11.53
2023-05-06T06:16:24.040Z,11.64
2023-05-06T06:17:24.078Z,11.57
2023-05-06T06:18:24.021Z,11.53
2023-05-06T06:19:24.008Z,11.59
2023-05-06T06:20:23.997Z,11.57
2023-05-06T06:21:24.955Z,11.67
2023-05-06T06:22:24.003Z,11.74
2023-05-06T06:23:23.961Z,11.81
2023-05-06T06:24:23.978Z,11.77
2023-05-06T06:25:23.928Z,11.70
2023-05-06T06:26:23.976Z,11.62
2023-05-06T06:27:23.939Z,11.74
2023-05-06T06:28:23.927Z,11.75
2023-05-06T06:29:23.911Z,11.94
2023-05-06T06:30:23.922Z,12.13
2023-05-06T06:31:23.939Z,12.37
2023-05-06T06:32:23.908Z,12.41
2023-05-06T06:33:23.907Z,12.36
2023-05-06T06:34:23.894Z,12.49
2023-05-06T06:35:23.902Z,12.62
2023-05-06T06:36:23.860Z,12.73
2023-05-06T06:37:23.890Z,12.88
2023-05-06T06:38:23.888Z,12.89
2023-05-06T06:39:23.847Z,12.91
2023-05-06T06:40:23.869Z,12.99
2023-05-06T06:41:23.844Z,13.03
2023-05-06T06:42:23.812Z,13.17
2023-05-06T06:43:23.809Z,13.22
2023-05-06T06:44:23.797Z,13.36
2023-05-06T06:45:23.802Z,13.31
2023-05-06T06:46:24.008Z,13.36
2023-05-06T06:47:23.861Z,13.31
2023-05-06T06:48:23.790Z,13.25
2023-05-06T06:49:23.745Z,13.47
2023-05-06T06:50:23.768Z,13.62
2023-05-06T06:51:23.763Z,13.65
2023-05-06T06:52:23.720Z,13.68
2023-05-06T06:53:23.743Z,13.81
2023-05-06T06:54:23.772Z,13.94
2023-05-06T06:55:23.714Z,14.02
2023-05-06T06:56:23.747Z,13.98
2023-05-06T06:57:23.727Z,13.99
2023-05-06T06:58:23.775Z,14.13
2023-05-06T06:59:23.675Z,14.17
2023-05-06T07:00:23.701Z,14.09
2023-05-06T07:01:23.719Z,14.20
2023-05-06T07:02:23.794Z,13.83
2023-05-06T07:03:23.773Z,13.43
2023-05-06T07:04:23.635Z,13.04
2023-05-06T07:05:23.638Z,13.24
2023-05-06T07:06:23.701Z,13.21
2023-05-06T07:07:23.673Z,13.32
2023-05-06T07:08:23.605Z,13.47
2023-05-06T07:09:23.603Z,13.36
2023-05-06T07:10:23.597Z,13.06
2023-05-06T07:11:23.608Z,13.06
2023-05-06T07:12:23.588Z,13.36
2023-05-06T07:13:23.664Z,13.73
2023-05-06T07:14:23.608Z,14.35
2023-05-06T07:15:23.662Z,14.60
2023-05-06T07:16:23.573Z,15.03
2023-05-06T07:17:23.662Z,15.37
2023-05-06T07:18:23.611Z,15.58
2023-05-06T07:19:23.564Z,15.95
2023-05-06T07:20:23.526Z,16.16
2023-05-06T07:21:23.548Z,16.40
2023-05-06T07:22:23.514Z,16.66
2023-05-06T07:23:23.492Z,16.98
2023-05-06T07:24:23.541Z,17.27
2023-05-06T07:25:23.481Z,17.40
2023-05-06T07:26:23.522Z,17.51
2023-05-06T07:27:23.461Z,17.58
2023-05-06T07:28:23.457Z,17.42
2023-05-06T07:29:23.466Z,17.25
2023-05-06T07:30:23.643Z,17.00
2023-05-06T07:31:23.514Z,16.87
2023-05-06T07:32:23.507Z,16.70
2023-05-06T07:33:23.415Z,16.48
2023-05-06T07:34:23.437Z,16.30
2023-05-06T07:35:23.456Z,16.22
2023-05-06T07:36:23.432Z,16.25
2023-05-06T07:37:23.403Z,16.23
2023-05-06T07:38:23.391Z,16.16
2023-05-06T07:39:23.401Z,16.07
2023-05-06T07:40:23.581Z,16.13
2023-05-06T07:41:23.370Z,16.07
2023-05-06T07:42:23.514Z,16.18
2023-05-06T07:43:23.407Z,16.45
2023-05-06T07:44:23.384Z,16.62
2023-05-06T07:45:23.416Z,16.91
2023-05-06T07:46:23.457Z,17.07
2023-05-06T07:47:23.496Z,17.07
2023-05-06T07:48:23.385Z,17.35
2023-05-06T07:49:23.327Z,17.12
2023-05-06T07:50:23.416Z,15.89
2023-05-06T07:51:23.299Z,15.23
2023-05-06T07:52:23.283Z,15.12
2023-05-06T07:53:23.296Z,15.44
2023-05-06T07:54:23.276Z,15.80
2023-05-06T07:55:23.288Z,16.10
2023-05-06T07:56:23.297Z,16.37
2023-05-06T07:57:23.297Z,16.14
2023-05-06T07:58:23.327Z,16.11
2023-05-06T07:59:23.278Z,15.66
2023-05-06T08:00:23.332Z,15.56
2023-05-06T08:01:23.263Z,15.27
2023-05-06T08:02:23.280Z,15.80
2023-05-06T08:03:23.415Z,16.18
2023-05-06T08:04:23.227Z,16.55
2023-05-06T08:05:23.236Z,16.66
2023-05-06T08:06:23.253Z,16.98
2023-05-06T08:07:23.192Z,17.30
2023-05-06T08:08:23.220Z,17.55
2023-05-06T08:09:23.359Z,17.39
2023-05-06T08:10:23.206Z,16.23
2023-05-06T08:11:23.170Z,15.96
2023-05-06T08:12:23.199Z,16.13
2023-05-06T08:13:23.273Z,16.54
2023-05-06T08:14:23.239Z,16.92
2023-05-06T08:15:23.151Z,17.17
2023-05-06T08:16:25.171Z,17.55
2023-05-06T08:17:23.222Z,17.63
2023-05-06T08:18:23.423Z,17.77
2023-05-06T08:19:23.173Z,18.11
2023-05-06T08:20:23.174Z,18.31
2023-05-06T08:21:23.118Z,18.21
2023-05-06T08:22:23.116Z,18.23
2023-05-06T08:23:23.114Z,17.76
2023-05-06T08:24:23.092Z,17.58
2023-05-06T08:25:23.110Z,17.57
2023-05-06T08:26:23.082Z,17.92
2023-05-06T08:27:23.118Z,18.05
2023-05-06T08:28:24.664Z,18.23
2023-05-06T08:29:23.099Z,17.57
2023-05-06T08:30:23.235Z,17.66
2023-05-06T08:31:23.115Z,17.80
2023-05-06T08:32:23.098Z,18.01
2023-05-06T08:33:23.100Z,18.05
2023-05-06T08:34:23.051Z,18.13
2023-05-06T08:35:23.045Z,18.36
2023-05-06T08:36:23.035Z,18.66
2023-05-06T08:37:23.040Z,18.90
2023-05-06T08:38:23.044Z,19.20
2023-05-06T08:39:23.004Z,19.20
2023-05-06T08:40:23.017Z,19.13
2023-05-06T08:41:23.061Z,19.45
2023-05-06T08:42:23.015Z,19.53
2023-05-06T08:43:23.021Z,19.20
2023-05-06T08:44:23.014Z,18.89
2023-05-06T08:45:22.995Z,18.64
2023-05-06T08:46:23.243Z,18.01
2023-05-06T08:47:22.995Z,17.14
2023-05-06T08:48:22.976Z,16.81
2023-05-06T08:49:22.999Z,16.81
2023-05-06T08:50:22.944Z,17.05
2023-05-06T08:51:24.821Z,17.43
2023-05-06T08:52:22.969Z,17.77
2023-05-06T08:53:22.957Z,18.19
2023-05-06T08:54:22.970Z,18.60
2023-05-06T08:55:22.930Z,18.76
2023-05-06T08:56:22.967Z,18.78
2023-05-06T08:57:22.956Z,18.91
2023-05-06T08:58:22.923Z,19.13
2023-05-06T08:59:22.910Z,18.97
2023-05-06T09:00:22.913Z,19.15
2023-05-06T09:01:23.025Z,19.13
2023-05-06T09:02:23.074Z,19.38
2023-05-06T09:03:23.008Z,19.47
2023-05-06T09:04:22.883Z,19.58
2023-05-06T09:05:22.889Z,19.13
2023-05-06T09:06:22.910Z,19.10
2023-05-06T09:07:22.839Z,19.09
2023-05-06T09:08:22.882Z,18.97
2023-05-06T09:09:22.842Z,18.87
2023-05-06T09:10:22.845Z,18.76
2023-05-06T09:11:22.830Z,18.83
2023-05-06T09:12:22.838Z,19.01
2023-05-06T09:13:22.891Z,19.12
2023-05-06T09:14:22.846Z,19.17
2023-05-06T09:15:22.834Z,19.39
2023-05-06T09:16:22.889Z,19.32
2023-05-06T09:17:22.803Z,18.90
2023-05-06T09:18:22.851Z,18.83
2023-05-06T09:19:22.970Z,19.06
2023-05-06T09:20:22.820Z,19.47
2023-05-06T09:21:22.763Z,19.64
2023-05-06T09:22:22.903Z,19.85
2023-05-06T09:23:22.788Z,20.13
2023-05-06T09:24:22.755Z,20.38
2023-05-06T09:25:22.753Z,20.48
2023-05-06T09:26:22.871Z,20.42
2023-05-06T09:27:22.731Z,19.94
2023-05-06T09:28:22.746Z,19.78
2023-05-06T09:29:22.732Z,19.82
2023-05-06T09:30:22.758Z,19.70
2023-05-06T09:31:22.727Z,19.50
2023-05-06T09:32:22.741Z,19.49
2023-05-06T09:33:22.693Z,19.46
2023-05-06T09:34:22.797Z,19.58
2023-05-06T09:35:22.693Z,19.87
2023-05-06T09:36:22.704Z,20.05
2023-05-06T09:37:22.694Z,20.38
2023-05-06T09:38:22.684Z,20.20
2023-05-06T09:39:22.660Z,19.71
2023-05-06T09:40:22.673Z,19.40
2023-05-06T09:41:22.648Z,19.72
2023-05-06T09:42:22.656Z,20.01
2023-05-06T09:43:22.623Z,20.35
2023-05-06T09:44:22.747Z,20.58
2023-05-06T09:45:22.656Z,20.78
2023-05-06T09:46:22.753Z,20.82
2023-05-06T09:47:22.611Z,20.90
2023-05-06T09:48:22.595Z,20.83
2023-05-06T09:49:22.597Z,20.76
2023-05-06T09:50:22.725Z,20.93
2023-05-06T09:51:22.585Z,21.09
2023-05-06T09:52:22.577Z,21.15
2023-05-06T09:53:22.864Z,20.60
2023-05-06T09:54:22.558Z,20.33
2023-05-06T09:55:22.574Z,19.87
2023-05-06T09:56:22.601Z,19.13
2023-05-06T09:57:22.562Z,19.20
2023-05-06T09:58:22.565Z,19.28
2023-05-06T09:59:22.554Z,18.87
2023-05-06T10:00:22.549Z,19.13
2023-05-06T10:01:35.319Z,19.40
2023-05-06T10:02:24.556Z,19.06
2023-05-06T10:03:23.207Z,18.89
2023-05-06T10:04:24.592Z,19.30
2023-05-06T10:05:22.782Z,19.43
2023-05-06T10:06:22.677Z,19.72
2023-05-06T10:07:22.534Z,19.80
2023-05-06T10:08:22.484Z,20.01
2023-05-06T10:09:22.647Z,20.27
2023-05-06T10:10:25.267Z,20.13
2023-05-06T10:11:22.525Z,20.30
2023-05-06T10:12:22.456Z,20.41
2023-05-06T10:13:22.749Z,19.78
2023-05-06T10:14:22.489Z,19.82
2023-05-06T10:15:22.474Z,19.80
2023-05-06T10:16:22.518Z,19.43
2023-05-06T10:17:22.484Z,19.39
2023-05-06T10:18:22.411Z,19.49
2023-05-06T10:19:23.393Z,19.79
2023-05-06T10:20:22.434Z,20.12
2023-05-06T10:21:22.393Z,20.41
2023-05-06T10:22:22.462Z,20.68
2023-05-06T10:23:22.388Z,20.83
2023-05-06T10:24:22.376Z,20.41
2023-05-06T10:25:22.416Z,19.78
2023-05-06T10:26:22.366Z,19.79
2023-05-06T10:27:22.353Z,19.92
2023-05-06T10:28:23.617Z,20.12
2023-05-06T10:29:23.326Z,20.31
2023-05-06T10:30:22.363Z,20.10
2023-05-06T10:31:22.340Z,19.85
2023-05-06T10:32:22.365Z,19.87
2023-05-06T10:33:22.346Z,20.19
2023-05-06T10:34:22.383Z,20.41
2023-05-06T10:35:22.331Z,19.65
2023-05-06T10:36:22.441Z,19.95
2023-05-06T10:37:22.317Z,20.20
2023-05-06T10:38:22.349Z,20.01
2023-05-06T10:39:22.347Z,19.35
2023-05-06T10:40:22.325Z,19.43
2023-05-06T10:41:22.298Z,19.76
2023-05-06T10:42:22.261Z,19.94
2023-05-06T10:43:22.251Z,19.95
2023-05-06T10:44:22.241Z,19.92
2023-05-06T10:45:22.286Z,20.16
2023-05-06T10:46:22.294Z,19.70
2023-05-06T10:47:22.281Z,19.78
2023-05-06T10:48:22.269Z,20.01
2023-05-06T10:49:22.241Z,20.25
2023-05-06T10:50:22.207Z,20.51
2023-05-06T10:51:22.211Z,20.61
2023-05-06T10:52:22.191Z,20.73
2023-05-06T10:53:22.185Z,20.05
2023-05-06T10:54:22.237Z,19.10
2023-05-06T10:55:22.222Z,18.72
2023-05-06T10:56:22.169Z,18.60
2023-05-06T10:57:22.138Z,18.83
2023-05-06T10:58:22.134Z,19.27
2023-05-06T10:59:22.128Z,18.90
2023-05-06T11:00:22.126Z,18.71
2023-05-06T11:01:22.201Z,18.96
2023-05-06T11:02:22.259Z,19.32
2023-05-06T11:03:22.306Z,19.55
2023-05-06T11:04:22.135Z,19.76
2023-05-06T11:05:22.088Z,20.08
2023-05-06T11:06:22.110Z,20.07
2023-05-06T11:07:22.219Z,19.86
2023-05-06T11:08:22.083Z,20.10
2023-05-06T11:09:22.107Z,19.57
2023-05-06T11:10:22.069Z,19.52
2023-05-06T11:11:22.066Z,19.79
2023-05-06T11:12:22.159Z,19.76
2023-05-06T11:13:22.219Z,19.85
2023-05-06T11:14:22.042Z,20.26
2023-05-06T11:15:22.033Z,20.66
2023-05-06T11:16:22.073Z,21.03
2023-05-06T11:17:22.066Z,21.37
2023-05-06T11:18:22.013Z,21.06
2023-05-06T11:19:22.034Z,21.11
2023-05-06T11:20:22.027Z,21.30
2023-05-06T11:21:22.007Z,21.27
2023-05-06T11:22:21.983Z,21.36
2023-05-06T11:23:22.010Z,21.33
2023-05-06T11:24:22.034Z,21.42
2023-05-06T11:25:21.976Z,21.46
2023-05-06T11:26:22.052Z,21.42
2023-05-06T11:27:22.018Z,21.34
2023-05-06T11:28:21.948Z,21.19
2023-05-06T11:29:21.962Z,21.13
2023-05-06T11:30:21.936Z,21.13
2023-05-06T11:31:21.987Z,21.09
2023-05-06T11:32:21.930Z,20.85
2023-05-06T11:33:21.926Z,19.80
2023-05-06T11:34:21.940Z,19.45
2023-05-06T11:35:21.925Z,19.39
2023-05-06T11:36:21.908Z,19.43
2023-05-06T11:37:21.919Z,19.16
2023-05-06T11:38:21.875Z,19.12
2023-05-06T11:39:21.912Z,18.97
2023-05-06T11:40:21.917Z,19.02
2023-05-06T11:41:21.885Z,19.24
2023-05-06T11:42:22.044Z,19.45
2023-05-06T11:43:21.886Z,19.34
2023-05-06T11:44:21.888Z,19.40
2023-05-06T11:45:21.868Z,19.42
2023-05-06T11:46:21.956Z,19.52
2023-05-06T11:47:21.835Z,19.61
2023-05-06T11:48:21.835Z,19.75
2023-05-06T11:49:21.824Z,19.60
2023-05-06T11:50:21.891Z,19.25
2023-05-06T11:51:21.825Z,18.96
2023-05-06T11:52:21.790Z,19.12
2023-05-06T11:53:21.817Z,19.31
2023-05-06T11:54:21.773Z,19.42
2023-05-06T11:55:21.752Z,19.28
2023-05-06T11:56:22.790Z,19.25
2023-05-06T11:57:22.768Z,19.07
2023-05-06T11:58:21.812Z,19.24
2023-05-06T11:59:21.766Z,19.32
2023-05-06T12:00:22.299Z,19.85
2023-05-06T12:01:21.773Z,20.34
2023-05-06T12:02:21.894Z,20.61
2023-05-06T12:03:21.893Z,20.58
2023-05-06T12:04:21.719Z,20.46
2023-05-06T12:05:21.740Z,20.51
2023-05-06T12:06:24.517Z,20.12
2023-05-06T12:07:22.685Z,20.15
2023-05-06T12:08:27.291Z,19.83
2023-05-06T12:09:23.686Z,19.85
2023-05-06T12:10:21.671Z,20.08
2023-05-06T12:11:21.688Z,20.50
2023-05-06T12:12:21.930Z,20.63
2023-05-06T12:13:21.677Z,20.73
2023-05-06T12:14:21.689Z,20.94
2023-05-06T12:15:21.665Z,20.98
2023-05-06T12:16:21.696Z,20.50
2023-05-06T12:17:21.681Z,20.20
2023-05-06T12:18:21.645Z,20.16
2023-05-06T12:19:21.641Z,20.48
2023-05-06T12:20:21.674Z,20.87
2023-05-06T12:21:21.968Z,20.98
2023-05-06T12:22:21.664Z,20.71
2023-05-06T12:23:21.603Z,20.33
2023-05-06T12:24:21.635Z,20.48
2023-05-06T12:25:21.596Z,20.00
2023-05-06T12:26:21.563Z,19.46
2023-05-06T12:27:21.626Z,19.80
2023-05-06T12:28:21.574Z,20.22
2023-05-06T12:29:21.697Z,20.40
2023-05-06T12:30:21.583Z,19.90
2023-05-06T12:31:21.635Z,19.68
2023-05-06T12:32:21.570Z,19.82
2023-05-06T12:33:21.559Z,20.12
2023-05-06T12:34:21.554Z,20.37
2023-05-06T12:35:21.538Z,20.71
2023-05-06T12:36:21.507Z,20.97
2023-05-06T12:37:21.513Z,20.66
2023-05-06T12:38:21.540Z,20.48
2023-05-06T12:39:21.531Z,19.92
2023-05-06T12:40:21.529Z,19.60
2023-05-06T12:41:21.504Z,19.62
2023-05-06T12:42:21.495Z,19.87
2023-05-06T12:43:21.483Z,20.25
2023-05-06T12:44:21.462Z,20.69
2023-05-06T12:45:22.701Z,21.00
2023-05-06T12:46:21.695Z,21.34
2023-05-06T12:47:21.479Z,21.61
2023-05-06T12:48:21.459Z,20.96
2023-05-06T12:49:21.500Z,20.13
2023-05-06T12:50:21.430Z,20.26
2023-05-06T12:51:21.424Z,20.33
2023-05-06T12:52:21.451Z,20.04